Laida — EAVE — position and weather

sailwx.info

Track history (hours):
 
Tides and Currents Weather Stations Pressure Air Temp Water Temp Dewpoint Dewpoint Depression Visibility Wind Speed Wind Dir Waves Ship Positions

Laida

Last reported at 2017-May-24 11:06 UTC. Time now 2017-May-26 22:42 UTC.
Position N 36°41' W 007°55'.

Length 100 m; draft 6.5 m.

Type: Cargo ship. MMSI: 224509000.

Date/timePositionNaut miles runAvg speedWind from/ knotsBaromVisibWave heightAir tempDewpointWater temp
2017-May-24 11:06N 36°41' W 007°55'2 9.6
2017-May-24 10:51N 36°41' W 007°58'23 9.5
2017-May-24 08:28N 36°37' W 008°26'5 9.5
2017-May-24 07:56N 36°36' W 008°32'46 8.9
2017-May-24 02:47N 36°44' W 009°28'310.5
2017-May-24 02:29N 36°46' W 009°30'510.2
2017-May-24 01:59N 36°51' W 009°33'1210.5
2017-May-24 00:49N 37°03' W 009°37'310.7
2017-May-24 00:30N 37°06' W 009°37'510.8
2017-May-24 00:00N 37°11' W 009°39'610.8
2017-May-23 23:30N 37°17' W 009°40'510.8
2017-May-23 23:00N 37°22' W 009°42'510.9
2017-May-23 22:30N 37°27' W 009°43'510.9
2017-May-23 22:00N 37°32' W 009°45'710.9
2017-May-23 21:24N 37°39' W 009°47'410.9
2017-May-23 21:00N 37°43' W 009°48'611.0
2017-May-23 20:30N 37°48' W 009°49'610.9
2017-May-23 20:00N 37°54' W 009°51'510.9
2017-May-23 19:31N 37°59' W 009°52'510.8
2017-May-23 19:00N 38°04' W 009°54'510.8
2017-May-23 18:30N 38°09' W 009°56'511.0
2017-May-23 18:00N 38°15' W 009°57'611.1
2017-May-23 17:30N 38°20' W 009°59'611.1
2017-May-23 17:00N 38°26' W 010°01'611.0
2017-May-23 16:30N 38°31' W 010°02'510.9
2017-May-23 16:01N 38°36' W 010°04'510.7
2017-May-23 15:30N 38°41' W 010°05'510.6
2017-May-23 15:01N 38°47' W 010°05'1110.7
2017-May-23 14:00N 38°57' W 010°03'510.6
2017-May-23 13:31N 39°02' W 010°01'510.6
2017-May-23 13:00N 39°07' W 009°59'510.4
2017-May-23 12:30N 39°12' W 009°57'510.9
2017-May-23 12:01N 39°18' W 009°55'510.8
2017-May-23 11:31N 39°23' W 009°54'611.0
2017-May-23 11:00N 39°28' W 009°52'711.0
2017-May-23 10:20N 39°35' W 009°49'910.7
2017-May-23 09:27N 39°44' W 009°45'510.5
2017-May-23 09:00N 39°49' W 009°44'11411.1
2017-May-22 22:46N 41°39' W 009°06'  
2017-May-19 16:14N 50°30' W 000°10'210.4
2017-May-19 16:00N 50°31' W 000°06'510.2
2017-May-19 15:29N 50°32' E 000°02'510.0
2017-May-19 15:00N 50°34' E 000°09'10 9.8
2017-May-19 14:00N 50°37' E 000°24'5 9.9
2017-May-19 13:30N 50°38' E 000°31'510.2
2017-May-19 13:00N 50°41' E 000°38'510.8
2017-May-19 12:30N 50°44' E 000°45'611.4
2017-May-19 12:00N 50°47' E 000°53'2512.1
2017-May-19 09:58N 51°02' E 001°23'611.9
2017-May-19 09:30N 51°06' E 001°30'510.7
2017-May-19 09:01N 51°10' E 001°36'510.5
2017-May-19 08:31N 51°15' E 001°39'510.0
2017-May-19 08:00N 51°19' E 001°43'5 9.8
2017-May-19 07:31N 51°24' E 001°46'5 9.9
2017-May-19 07:00N 51°28' E 001°49'5 9.8
2017-May-19 06:30N 51°32' E 001°54'510.0
2017-May-19 06:00N 51°36' E 001°58'510.1
2017-May-19 05:29N 51°41' E 002°02'2210.9
2017-May-19 03:30N 52°02' E 002°12'612.6
2017-May-19 03:00N 52°08' E 002°12'4412.5
2017-May-18 23:28N 52°52' E 002°03'812.0
2017-May-18 22:50N 52°56' E 001°53'411.7
2017-May-18 22:31N 52°58' E 001°48'611.5
2017-May-18 22:00N 53°01' E 001°39'611.0
2017-May-18 21:30N 53°05' E 001°33'510.9
2017-May-18 21:00N 53°09' E 001°26'510.6
2017-May-18 20:31N 53°12' E 001°20'6110.0
2017-May-18 14:24N 54°06' E 000°31'1910.6
2017-May-18 12:34N 54°24' E 000°17'110.7
2017-May-18 12:30N 54°24' E 000°17'510.9
2017-May-18 12:01N 54°29' E 000°13'611.0
2017-May-18 11:31N 54°34' E 000°09'611.2
2017-May-18 11:01N 54°39' E 000°04'611.5
2017-May-18 10:30N 54°45' E 000°00'14611.4
2017-May-17 21:37N 56°57' W 001°51'310.7
2017-May-17 21:20N 56°60' W 001°53'410.8
2017-May-17 20:59N 57°03' W 001°56'610.7
2017-May-17 20:28N 57°08' W 002°01'2 5.0
2017-May-17 20:01N 57°09' W 002°05'0 0.2
2017-May-17 19:30N 57°09' W 002°05'0 0.0
2017-May-17 19:00N 57°09' W 002°05'0 0.0
2017-May-17 18:21N 57°09' W 002°05'0 0.0
2017-May-17 17:54N 57°09' W 002°05'0 0.0
2017-May-17 17:21N 57°09' W 002°05'0 0.0
2017-May-17 17:00N 57°09' W 002°05'0 0.0
2017-May-17 16:24N 57°09' W 002°05'0 0.0
2017-May-17 16:00N 57°09' W 002°05'0 0.0
2017-May-17 15:18N 57°09' W 002°05'0 0.0
2017-May-17 14:54N 57°09' W 002°05'0 0.0
2017-May-17 14:27N 57°09' W 002°05'0 0.0
2017-May-17 13:30N 57°09' W 002°05'0 0.0
2017-May-17 12:43N 57°09' W 002°05'0 0.0
2017-May-17 12:28N 57°09' W 002°05'0 0.0
2017-May-17 11:58N 57°09' W 002°05'0 0.0
2017-May-17 11:28N 57°09' W 002°05'0 0.0
2017-May-17 10:55N 57°09' W 002°05'0 0.0
2017-May-17 10:28N 57°09' W 002°05'0 0.0
2017-May-17 09:55N 57°09' W 002°05'0 0.0
2017-May-17 09:28N 57°09' W 002°05'0 0.0
2017-May-17 08:55N 57°09' W 002°05'0 0.0
2017-May-17 08:22N 57°09' W 002°05'0 0.0
2017-May-17 07:55N 57°09' W 002°05'0 0.0
2017-May-17 07:22N 57°09' W 002°05'0 0.0
2017-May-17 06:43N 57°09' W 002°05'0 0.0
2017-May-17 06:13N 57°09' W 002°05'0 0.0
2017-May-17 05:58N 57°09' W 002°05'0 0.0
2017-May-17 05:28N 57°09' W 002°05'0 0.0
2017-May-17 04:58N 57°09' W 002°05'0 0.0
2017-May-17 04:25N 57°09' W 002°05'0 0.0
2017-May-17 03:55N 57°09' W 002°05'0 0.0
2017-May-17 03:28N 57°09' W 002°05'0 0.0
2017-May-17 02:55N 57°09' W 002°05'0 0.0
2017-May-17 02:28N 57°09' W 002°05'0 0.0
2017-May-17 01:58N 57°09' W 002°05'0 0.0
2017-May-17 01:28N 57°09' W 002°05'0 0.0
2017-May-17 00:58N 57°09' W 002°05'0 0.0
2017-May-17 00:28N 57°09' W 002°05'0 0.0
2017-May-16 23:58N 57°09' W 002°05'0 0.0
2017-May-16 23:28N 57°09' W 002°05'0 0.0
2017-May-16 22:58N 57°09' W 002°05'0 0.0
2017-May-16 22:28N 57°09' W 002°05'0 0.0
2017-May-16 21:55N 57°09' W 002°05'0 0.0
2017-May-16 21:13N 57°09' W 002°05'0 0.0
2017-May-16 18:52N 57°09' W 002°05'0 0.0
2017-May-16 18:25N 57°09' W 002°05'0 0.0
2017-May-16 17:28N 57°09' W 002°05'0 0.0
2017-May-16 16:34N 57°09' W 002°05'0 0.0
2017-May-16 16:28N 57°09' W 002°05'0 0.0
2017-May-16 15:55N 57°09' W 002°05'0 0.0
2017-May-16 15:19N 57°09' W 002°05'0 0.0
2017-May-16 14:58N 57°09' W 002°05'0 0.0
2017-May-16 14:28N 57°09' W 002°05'0 0.0
2017-May-16 13:22N 57°09' W 002°05'0 0.0
2017-May-16 12:58N 57°09' W 002°05'0 0.0
2017-May-16 12:28N 57°09' W 002°05'0 0.0
2017-May-16 12:01N 57°09' W 002°05'0 0.0
2017-May-16 11:30N 57°09' W 002°05'0 0.1
2017-May-16 11:00N 57°09' W 002°05'0 0.1
2017-May-16 10:30N 57°09' W 002°05'0 0.0
2017-May-16 10:00N 57°09' W 002°05'0 0.0
2017-May-16 09:30N 57°09' W 002°05'0 0.0
2017-May-16 08:57N 57°09' W 002°05'0 0.0
2017-May-16 08:30N 57°09' W 002°05'0 0.0
2017-May-16 07:54N 57°09' W 002°05'0 0.0
2017-May-16 07:09N 57°09' W 002°05'0 0.0
2017-May-16 06:57N 57°09' W 002°05'0 0.0
2017-May-16 06:30N 57°09' W 002°05'0 0.0
2017-May-16 05:57N 57°09' W 002°05'0 0.0
2017-May-16 05:30N 57°09' W 002°05'0 0.0
2017-May-16 05:00N 57°09' W 002°05'0 0.0
2017-May-16 04:30N 57°09' W 002°05'0 0.0
2017-May-16 04:00N 57°09' W 002°05'0 0.0
2017-May-16 03:27N 57°09' W 002°05'0 0.0
2017-May-16 03:00N 57°09' W 002°05'0 0.0
2017-May-16 02:30N 57°09' W 002°05'0 0.0
2017-May-16 02:00N 57°09' W 002°05'0 0.0
2017-May-16 01:30N 57°09' W 002°05'0 0.0
2017-May-16 00:45N 57°09' W 002°05'0 0.0
2017-May-16 00:27N 57°09' W 002°05'0 0.0
2017-May-15 23:59N 57°09' W 002°05'0 0.5
2017-May-15 23:30N 57°09' W 002°05'2 3.2
2017-May-15 23:00N 57°09' W 002°02'1 2.1
2017-May-15 22:30N 57°10' W 002°00'1 2.1
2017-May-15 22:00N 57°11' W 001°60'1 2.4
2017-May-15 21:28N 57°12' W 001°60'0 0.0
2017-May-15 20:43N 57°12' W 001°60'0 0.0
2017-May-15 20:25N 57°12' W 001°60'0 0.0
2017-May-15 19:52N 57°12' W 001°60'0 0.0
2017-May-15 19:25N 57°12' W 001°60'0 0.0
2017-May-15 18:43N 57°12' W 001°60'0 0.0
2017-May-15 18:19N 57°12' W 001°60'0 0.1
2017-May-15 17:58N 57°12' W 001°60'0 0.0
2017-May-15 17:19N 57°12' W 001°60'0 0.1
2017-May-15 16:58N 57°12' W 001°60'0 0.1
2017-May-15 16:22N 57°12' W 001°60'0 0.0
2017-May-15 15:52N 57°12' W 001°60'0 0.0
2017-May-15 15:22N 57°12' W 001°60'0 0.0
2017-May-15 14:55N 57°12' W 001°60'0 0.0
2017-May-15 13:55N 57°12' W 001°60'0 0.0
2017-May-15 13:28N 57°12' W 001°60'0 0.0
2017-May-15 12:52N 57°12' W 001°60'0 0.0
2017-May-15 12:01N 57°12' W 001°60'0 0.1
2017-May-15 11:43N 57°12' W 001°60'0 0.0
2017-May-15 11:13N 57°12' W 001°60'0 0.0
2017-May-15 10:58N 57°12' W 001°60'0 0.0
2017-May-15 10:13N 57°12' W 001°60'0 0.0
2017-May-15 09:52N 57°12' W 001°60'0 0.0
2017-May-15 09:28N 57°12' W 001°60'0 0.0
2017-May-15 08:58N 57°12' W 001°60'0 0.0
2017-May-15 07:49N 57°12' W 001°60'0 0.0
2017-May-15 07:22N 57°12' W 001°60'0 0.0
2017-May-15 06:58N 57°12' W 001°60'0 0.0
2017-May-15 06:16N 57°12' W 001°60'0 0.0
2017-May-15 05:58N 57°12' W 001°60'0 0.1
2017-May-15 05:25N 57°12' W 001°60'0 0.1
2017-May-15 04:52N 57°12' W 001°60'0 0.0
2017-May-15 03:52N 57°12' W 001°60'0 0.0
2017-May-15 03:25N 57°12' W 001°60'0 0.0
2017-May-15 02:55N 57°12' W 001°60'0 0.0
2017-May-15 02:28N 57°12' W 001°60'0 0.0
2017-May-15 01:58N 57°12' W 001°60'0 0.0
2017-May-15 01:28N 57°12' W 001°60'0 0.1
2017-May-15 00:55N 57°12' W 001°60'0 0.0
2017-May-15 00:22N 57°12' W 001°60'0 0.1
2017-May-14 23:52N 57°12' W 001°60'0 0.0
2017-May-14 23:07N 57°12' W 001°60'0 0.1
2017-May-14 22:55N 57°12' W 001°60'0 0.0
2017-May-14 22:25N 57°12' W 001°60'0 0.0
2017-May-14 21:55N 57°12' W 001°60'0 0.0
2017-May-14 21:28N 57°12' W 001°60'0 0.0
2017-May-14 20:40N 57°12' W 001°60'0 0.0
2017-May-14 20:13N 57°12' W 001°60'0 0.0
2017-May-14 19:58N 57°12' W 001°60'0 0.0
2017-May-14 19:01N 57°12' W 001°60'0 0.0
2017-May-14 18:34N 57°12' W 001°60'0 0.1
2017-May-14 18:19N 57°12' W 001°60'0 0.1
2017-May-14 17:58N 57°12' W 001°60'0 0.0
2017-May-14 16:43N 57°12' W 001°60'0 0.5
2017-May-14 16:30N 57°12' W 001°60'2 3.4
2017-May-14 16:00N 57°10' W 001°60'510.7
2017-May-14 15:30N 57°05' W 001°58'510.8
2017-May-14 15:00N 57°00' W 001°54'710.8
2017-May-14 14:23N 56°54' W 001°48'  
Track history (hours):
 
Tides and Currents Weather Stations Pressure Air Temp Water Temp Dewpoint Dewpoint Depression Visibility Wind Speed Wind Dir Waves Ship Positions

Laida

Last reported at 2017-May-24 11:06 UTC. Time now 2017-May-26 22:42 UTC.
Position N 36°41' W 007°55'.

Length 100 m; draft 6.5 m.

Type: Cargo ship. MMSI: 224509000.

Date/timePositionNaut miles runAvg speedWind from/ knotsBaromVisibWave heightAir tempDewpointWater temp
2017-May-24 11:06N 36°41' W 007°55'2 9.6
2017-May-24 10:51N 36°41' W 007°58'23 9.5
2017-May-24 08:28N 36°37' W 008°26'5 9.5
2017-May-24 07:56N 36°36' W 008°32'46 8.9
2017-May-24 02:47N 36°44' W 009°28'310.5
2017-May-24 02:29N 36°46' W 009°30'510.2
2017-May-24 01:59N 36°51' W 009°33'1210.5
2017-May-24 00:49N 37°03' W 009°37'310.7
2017-May-24 00:30N 37°06' W 009°37'510.8
2017-May-24 00:00N 37°11' W 009°39'610.8
2017-May-23 23:30N 37°17' W 009°40'510.8
2017-May-23 23:00N 37°22' W 009°42'510.9
2017-May-23 22:30N 37°27' W 009°43'510.9
2017-May-23 22:00N 37°32' W 009°45'710.9
2017-May-23 21:24N 37°39' W 009°47'410.9
2017-May-23 21:00N 37°43' W 009°48'611.0
2017-May-23 20:30N 37°48' W 009°49'610.9
2017-May-23 20:00N 37°54' W 009°51'510.9
2017-May-23 19:31N 37°59' W 009°52'510.8
2017-May-23 19:00N 38°04' W 009°54'510.8
2017-May-23 18:30N 38°09' W 009°56'511.0
2017-May-23 18:00N 38°15' W 009°57'611.1
2017-May-23 17:30N 38°20' W 009°59'611.1
2017-May-23 17:00N 38°26' W 010°01'611.0
2017-May-23 16:30N 38°31' W 010°02'510.9
2017-May-23 16:01N 38°36' W 010°04'510.7
2017-May-23 15:30N 38°41' W 010°05'510.6
2017-May-23 15:01N 38°47' W 010°05'1110.7
2017-May-23 14:00N 38°57' W 010°03'510.6
2017-May-23 13:31N 39°02' W 010°01'510.6
2017-May-23 13:00N 39°07' W 009°59'510.4
2017-May-23 12:30N 39°12' W 009°57'510.9
2017-May-23 12:01N 39°18' W 009°55'510.8
2017-May-23 11:31N 39°23' W 009°54'611.0
2017-May-23 11:00N 39°28' W 009°52'711.0
2017-May-23 10:20N 39°35' W 009°49'910.7
2017-May-23 09:27N 39°44' W 009°45'510.5
2017-May-23 09:00N 39°49' W 009°44'11411.1
2017-May-22 22:46N 41°39' W 009°06'  
2017-May-19 16:14N 50°30' W 000°10'210.4
2017-May-19 16:00N 50°31' W 000°06'510.2
2017-May-19 15:29N 50°32' E 000°02'510.0
2017-May-19 15:00N 50°34' E 000°09'10 9.8
2017-May-19 14:00N 50°37' E 000°24'5 9.9
2017-May-19 13:30N 50°38' E 000°31'510.2
2017-May-19 13:00N 50°41' E 000°38'510.8
2017-May-19 12:30N 50°44' E 000°45'611.4
2017-May-19 12:00N 50°47' E 000°53'2512.1
2017-May-19 09:58N 51°02' E 001°23'611.9
2017-May-19 09:30N 51°06' E 001°30'510.7
2017-May-19 09:01N 51°10' E 001°36'510.5
2017-May-19 08:31N 51°15' E 001°39'510.0
2017-May-19 08:00N 51°19' E 001°43'5 9.8
2017-May-19 07:31N 51°24' E 001°46'5 9.9
2017-May-19 07:00N 51°28' E 001°49'5 9.8
2017-May-19 06:30N 51°32' E 001°54'510.0
2017-May-19 06:00N 51°36' E 001°58'510.1
2017-May-19 05:29N 51°41' E 002°02'2210.9
2017-May-19 03:30N 52°02' E 002°12'612.6
2017-May-19 03:00N 52°08' E 002°12'4412.5
2017-May-18 23:28N 52°52' E 002°03'812.0
2017-May-18 22:50N 52°56' E 001°53'411.7
2017-May-18 22:31N 52°58' E 001°48'611.5
2017-May-18 22:00N 53°01' E 001°39'611.0
2017-May-18 21:30N 53°05' E 001°33'510.9
2017-May-18 21:00N 53°09' E 001°26'510.6
2017-May-18 20:31N 53°12' E 001°20'6110.0
2017-May-18 14:24N 54°06' E 000°31'1910.6
2017-May-18 12:34N 54°24' E 000°17'110.7
2017-May-18 12:30N 54°24' E 000°17'510.9
2017-May-18 12:01N 54°29' E 000°13'611.0
2017-May-18 11:31N 54°34' E 000°09'611.2
2017-May-18 11:01N 54°39' E 000°04'611.5
2017-May-18 10:30N 54°45' E 000°00'14611.4
2017-May-17 21:37N 56°57' W 001°51'310.7
2017-May-17 21:20N 56°60' W 001°53'410.8
2017-May-17 20:59N 57°03' W 001°56'610.7
2017-May-17 20:28N 57°08' W 002°01'2 5.0
2017-May-17 20:01N 57°09' W 002°05'0 0.2
2017-May-17 19:30N 57°09' W 002°05'0 0.0
2017-May-17 19:00N 57°09' W 002°05'0 0.0
2017-May-17 18:21N 57°09' W 002°05'0 0.0
2017-May-17 17:54N 57°09' W 002°05'0 0.0
2017-May-17 17:21N 57°09' W 002°05'0 0.0
2017-May-17 17:00N 57°09' W 002°05'0 0.0
2017-May-17 16:24N 57°09' W 002°05'0 0.0
2017-May-17 16:00N 57°09' W 002°05'0 0.0
2017-May-17 15:18N 57°09' W 002°05'0 0.0
2017-May-17 14:54N 57°09' W 002°05'0 0.0
2017-May-17 14:27N 57°09' W 002°05'0 0.0
2017-May-17 13:30N 57°09' W 002°05'0 0.0
2017-May-17 12:43N 57°09' W 002°05'0 0.0
2017-May-17 12:28N 57°09' W 002°05'0 0.0
2017-May-17 11:58N 57°09' W 002°05'0 0.0
2017-May-17 11:28N 57°09' W 002°05'0 0.0
2017-May-17 10:55N 57°09' W 002°05'0 0.0
2017-May-17 10:28N 57°09' W 002°05'0 0.0
2017-May-17 09:55N 57°09' W 002°05'0 0.0
2017-May-17 09:28N 57°09' W 002°05'0 0.0
2017-May-17 08:55N 57°09' W 002°05'0 0.0
2017-May-17 08:22N 57°09' W 002°05'0 0.0
2017-May-17 07:55N 57°09' W 002°05'0 0.0
2017-May-17 07:22N 57°09' W 002°05'0 0.0
2017-May-17 06:43N 57°09' W 002°05'0 0.0
2017-May-17 06:13N 57°09' W 002°05'0 0.0
2017-May-17 05:58N 57°09' W 002°05'0 0.0
2017-May-17 05:28N 57°09' W 002°05'0 0.0
2017-May-17 04:58N 57°09' W 002°05'0 0.0
2017-May-17 04:25N 57°09' W 002°05'0 0.0
2017-May-17 03:55N 57°09' W 002°05'0 0.0
2017-May-17 03:28N 57°09' W 002°05'0 0.0
2017-May-17 02:55N 57°09' W 002°05'0 0.0
2017-May-17 02:28N 57°09' W 002°05'0 0.0
2017-May-17 01:58N 57°09' W 002°05'0 0.0
2017-May-17 01:28N 57°09' W 002°05'0 0.0
2017-May-17 00:58N 57°09' W 002°05'0 0.0
2017-May-17 00:28N 57°09' W 002°05'0 0.0
2017-May-16 23:58N 57°09' W 002°05'0 0.0
2017-May-16 23:28N 57°09' W 002°05'0 0.0
2017-May-16 22:58N 57°09' W 002°05'0 0.0
2017-May-16 22:28N 57°09' W 002°05'0 0.0
2017-May-16 21:55N 57°09' W 002°05'0 0.0
2017-May-16 21:13N 57°09' W 002°05'0 0.0
2017-May-16 18:52N 57°09' W 002°05'0 0.0
2017-May-16 18:25N 57°09' W 002°05'0 0.0
2017-May-16 17:28N 57°09' W 002°05'0 0.0
2017-May-16 16:34N 57°09' W 002°05'0 0.0
2017-May-16 16:28N 57°09' W 002°05'0 0.0
2017-May-16 15:55N 57°09' W 002°05'0 0.0
2017-May-16 15:19N 57°09' W 002°05'0 0.0
2017-May-16 14:58N 57°09' W 002°05'0 0.0
2017-May-16 14:28N 57°09' W 002°05'0 0.0
2017-May-16 13:22N 57°09' W 002°05'0 0.0
2017-May-16 12:58N 57°09' W 002°05'0 0.0
2017-May-16 12:28N 57°09' W 002°05'0 0.0
2017-May-16 12:01N 57°09' W 002°05'0 0.0
2017-May-16 11:30N 57°09' W 002°05'0 0.1
2017-May-16 11:00N 57°09' W 002°05'0 0.1
2017-May-16 10:30N 57°09' W 002°05'0 0.0
2017-May-16 10:00N 57°09' W 002°05'0 0.0
2017-May-16 09:30N 57°09' W 002°05'0 0.0
2017-May-16 08:57N 57°09' W 002°05'0 0.0
2017-May-16 08:30N 57°09' W 002°05'0 0.0
2017-May-16 07:54N 57°09' W 002°05'0 0.0
2017-May-16 07:09N 57°09' W 002°05'0 0.0
2017-May-16 06:57N 57°09' W 002°05'0 0.0
2017-May-16 06:30N 57°09' W 002°05'0 0.0
2017-May-16 05:57N 57°09' W 002°05'0 0.0
2017-May-16 05:30N 57°09' W 002°05'0 0.0
2017-May-16 05:00N 57°09' W 002°05'0 0.0
2017-May-16 04:30N 57°09' W 002°05'0 0.0
2017-May-16 04:00N 57°09' W 002°05'0 0.0
2017-May-16 03:27N 57°09' W 002°05'0 0.0
2017-May-16 03:00N 57°09' W 002°05'0 0.0
2017-May-16 02:30N 57°09' W 002°05'0 0.0
2017-May-16 02:00N 57°09' W 002°05'0 0.0
2017-May-16 01:30N 57°09' W 002°05'0 0.0
2017-May-16 00:45N 57°09' W 002°05'0 0.0
2017-May-16 00:27N 57°09' W 002°05'0 0.0
2017-May-15 23:59N 57°09' W 002°05'0 0.5
2017-May-15 23:30N 57°09' W 002°05'2 3.2
2017-May-15 23:00N 57°09' W 002°02'1 2.1
2017-May-15 22:30N 57°10' W 002°00'1 2.1
2017-May-15 22:00N 57°11' W 001°60'1 2.4
2017-May-15 21:28N 57°12' W 001°60'0 0.0
2017-May-15 20:43N 57°12' W 001°60'0 0.0
2017-May-15 20:25N 57°12' W 001°60'0 0.0
2017-May-15 19:52N 57°12' W 001°60'0 0.0
2017-May-15 19:25N 57°12' W 001°60'0 0.0
2017-May-15 18:43N 57°12' W 001°60'0 0.0
2017-May-15 18:19N 57°12' W 001°60'0 0.1
2017-May-15 17:58N 57°12' W 001°60'0 0.0
2017-May-15 17:19N 57°12' W 001°60'0 0.1
2017-May-15 16:58N 57°12' W 001°60'0 0.1
2017-May-15 16:22N 57°12' W 001°60'0 0.0
2017-May-15 15:52N 57°12' W 001°60'0 0.0
2017-May-15 15:22N 57°12' W 001°60'0 0.0
2017-May-15 14:55N 57°12' W 001°60'0 0.0
2017-May-15 13:55N 57°12' W 001°60'0 0.0
2017-May-15 13:28N 57°12' W 001°60'0 0.0
2017-May-15 12:52N 57°12' W 001°60'0 0.0
2017-May-15 12:01N 57°12' W 001°60'0 0.1
2017-May-15 11:43N 57°12' W 001°60'0 0.0
2017-May-15 11:13N 57°12' W 001°60'0 0.0
2017-May-15 10:58N 57°12' W 001°60'0 0.0
2017-May-15 10:13N 57°12' W 001°60'0 0.0
2017-May-15 09:52N 57°12' W 001°60'0 0.0
2017-May-15 09:28N 57°12' W 001°60'0 0.0
2017-May-15 08:58N 57°12' W 001°60'0 0.0
2017-May-15 07:49N 57°12' W 001°60'0 0.0
2017-May-15 07:22N 57°12' W 001°60'0 0.0
2017-May-15 06:58N 57°12' W 001°60'0 0.0
2017-May-15 06:16N 57°12' W 001°60'0 0.0
2017-May-15 05:58N 57°12' W 001°60'0 0.1
2017-May-15 05:25N 57°12' W 001°60'0 0.1
2017-May-15 04:52N 57°12' W 001°60'0 0.0
2017-May-15 03:52N 57°12' W 001°60'0 0.0
2017-May-15 03:25N 57°12' W 001°60'0 0.0
2017-May-15 02:55N 57°12' W 001°60'0 0.0
2017-May-15 02:28N 57°12' W 001°60'0 0.0
2017-May-15 01:58N 57°12' W 001°60'0 0.0
2017-May-15 01:28N 57°12' W 001°60'0 0.1
2017-May-15 00:55N 57°12' W 001°60'0 0.0
2017-May-15 00:22N 57°12' W 001°60'0 0.1
2017-May-14 23:52N 57°12' W 001°60'0 0.0
2017-May-14 23:07N 57°12' W 001°60'0 0.1
2017-May-14 22:55N 57°12' W 001°60'0 0.0
2017-May-14 22:25N 57°12' W 001°60'0 0.0
2017-May-14 21:55N 57°12' W 001°60'0 0.0
2017-May-14 21:28N 57°12' W 001°60'0 0.0
2017-May-14 20:40N 57°12' W 001°60'0 0.0
2017-May-14 20:13N 57°12' W 001°60'0 0.0
2017-May-14 19:58N 57°12' W 001°60'0 0.0
2017-May-14 19:01N 57°12' W 001°60'0 0.0
2017-May-14 18:34N 57°12' W 001°60'0 0.1
2017-May-14 18:19N 57°12' W 001°60'0 0.1
2017-May-14 17:58N 57°12' W 001°60'0 0.0
2017-May-14 16:43N 57°12' W 001°60'0 0.5
2017-May-14 16:30N 57°12' W 001°60'2 3.4
2017-May-14 16:00N 57°10' W 001°60'510.7
2017-May-14 15:30N 57°05' W 001°58'510.8
2017-May-14 15:00N 57°00' W 001°54'710.8
2017-May-14 14:23N 56°54' W 001°48'  

Dump ship's entire track history